Time;durP1;ratioP1;P1;durP2;ratioP2;P2;SDS_P1;SDS_P2;PMS_P1;PMS_P2;Temp;Humidity;BMP_temperature;BMP_pressure;BME280_temperature;BME280_humidity;BME280_pressure;Samples;Min_cycle;Max_cycle;Signal;HPM_P1;HPM_P2
2023/03/12 00:02:24;;;;;;;0.30;0.30;;;;;;;17.49;45.04;100816.84;5101467;27;20043;-36
2023/03/12 00:04:50;;;;;;;0.40;0.40;;;;;;;17.47;44.95;100814.34;5136036;27;20479;-36
2023/03/12 00:07:16;;;;;;;0.30;0.30;;;;;;;17.47;45.03;100817.09;5108708;27;20043;-36
2023/03/12 00:09:42;;;;;;;0.40;0.40;;;;;;;17.48;45.01;100810.47;5097192;28;20046;-36
2023/03/12 00:12:07;;;;;;;0.30;0.30;;;;;;;17.47;44.98;100819.84;5097701;28;20051;-36
2023/03/12 00:14:33;;;;;;;0.40;0.40;;;;;;;17.47;45.19;100811.59;5113687;28;20047;-36
2023/03/12 00:16:59;;;;;;;0.40;0.40;;;;;;;17.49;45.01;100814.91;5118467;28;20452;-36
2023/03/12 00:19:25;;;;;;;0.30;0.30;;;;;;;17.48;45.00;100810.47;5117813;28;20145;-36
2023/03/12 00:21:50;;;;;;;0.30;0.30;;;;;;;17.49;45.02;100814.09;5118219;28;20047;-36
2023/03/12 00:24:16;;;;;;;0.40;0.40;;;;;;;17.48;45.22;100807.72;5117845;28;20055;-37
2023/03/12 00:26:42;;;;;;;0.30;0.30;;;;;;;17.49;44.98;100808.56;5118219;28;20241;-36
2023/03/12 00:29:08;;;;;;;0.30;0.30;;;;;;;17.48;45.00;100804.97;5118074;28;20066;-36
2023/03/12 00:31:33;;;;;;;0.40;0.40;;;;;;;17.49;45.05;100805.81;5117395;28;20398;-36
2023/03/12 00:34:00;;;;;;;0.30;0.30;;;;;;;17.47;44.93;100797.81;5108897;28;20111;-36
2023/03/12 00:36:29;;;;;;;0.30;0.30;;;;;;;17.48;45.22;100801.41;5099623;28;20051;-36
2023/03/12 00:38:55;;;;;;;0.40;0.40;;;;;;;17.48;44.95;100793.97;5117233;28;20208;-36
2023/03/12 00:41:21;;;;;;;0.40;0.40;;;;;;;17.48;45.02;100798.63;5117306;28;20082;-36
2023/03/12 00:43:49;;;;;;;0.30;0.30;;;;;;;17.48;44.59;100799.47;5117251;28;20058;-36
2023/03/12 00:46:14;;;;;;;0.30;0.30;;;;;;;17.48;44.99;100798.63;5099144;28;20043;-36
2023/03/12 00:48:40;;;;;;;0.40;0.40;;;;;;;17.48;45.01;100791.22;5117459;28;20054;-36
2023/03/12 00:51:06;;;;;;;0.32;0.32;;;;;;;17.48;45.06;100790.38;5117498;28;20476;-37
2023/03/12 00:53:32;;;;;;;0.40;0.40;;;;;;;17.48;44.99;100784.88;5099024;28;20047;-36
2023/03/12 00:55:58;;;;;;;0.30;0.30;;;;;;;17.48;45.12;100768.34;5117505;28;20078;-36
2023/03/12 00:58:23;;;;;;;0.30;0.30;;;;;;;17.48;45.04;100771.09;5118034;28;20452;-36
2023/03/12 01:00:49;;;;;;;0.30;0.30;;;;;;;17.48;45.01;100771.94;5117443;28;20043;-36
2023/03/12 01:03:15;;;;;;;0.30;0.30;;;;;;;17.48;45.01;100771.09;5100929;28;20059;-36
2023/03/12 01:05:40;;;;;;;0.30;0.30;;;;;;;17.48;45.04;100768.34;5079824;28;20047;-37
2023/03/12 01:08:07;;;;;;;0.30;0.30;;;;;;;17.49;45.03;100764.53;5117295;28;20067;-36
2023/03/12 01:10:33;;;;;;;0.30;0.30;;;;;;;17.49;45.03;100767.28;5098992;28;20116;-36
2023/03/12 01:12:59;;;;;;;0.40;0.40;;;;;;;17.48;45.21;100765.59;5117157;28;20402;-37
2023/03/12 01:15:25;;;;;;;0.30;0.30;;;;;;;17.49;45.16;100761.78;5116350;27;20051;-36
2023/03/12 01:17:51;;;;;;;0.32;0.32;;;;;;;17.49;44.98;100761.78;5080295;28;20075;-36
2023/03/12 01:20:17;;;;;;;0.40;0.40;;;;;;;17.49;44.94;100759.84;5097353;28;20054;-36
2023/03/12 01:22:43;;;;;;;0.30;0.30;;;;;;;17.49;44.73;100767.28;5096631;28;20043;-36
2023/03/12 01:25:09;;;;;;;0.40;0.40;;;;;;;17.49;45.03;100759.03;5096782;28;20051;-37
2023/03/12 01:27:35;;;;;;;0.30;0.30;;;;;;;17.48;44.94;100749.09;5113821;28;20344;-36
2023/03/12 01:30:01;;;;;;;0.40;0.40;;;;;;;17.48;45.17;100749.91;5117269;28;20493;-36
2023/03/12 01:32:27;;;;;;;0.40;0.40;;;;;;;17.48;45.18;100751.84;5101364;28;20053;-37
2023/03/12 01:34:52;;;;;;;0.40;0.40;;;;;;;17.50;44.91;100746.91;5116751;27;20047;-36
2023/03/12 01:37:18;;;;;;;0.40;0.40;;;;;;;17.48;45.17;100738.88;5116932;28;20039;-36
2023/03/12 01:39:44;;;;;;;0.30;0.30;;;;;;;17.49;45.02;100737.00;5117307;28;20479;-36
2023/03/12 01:42:09;;;;;;;0.30;0.30;;;;;;;17.50;45.00;100727.63;5116621;28;20047;-36
2023/03/12 01:44:56;;;;;;;0.30;0.30;;;;;;;17.50;44.86;100714.69;5116407;28;20050;-37
2023/03/12 01:47:23;;;;;;;0.30;0.30;;;;;;;17.49;45.27;100718.53;5084157;28;20050;-37
2023/03/12 01:49:50;;;;;;;0.30;0.30;;;;;;;17.49;45.00;100724.06;5098655;28;20530;-36
2023/03/12 01:52:20;;;;;;;0.32;0.32;;;;;;;17.50;45.15;100722.13;5116859;28;20046;-36
2023/03/12 01:54:52;;;;;;;0.40;0.40;;;;;;;17.50;45.18;100722.94;5081096;28;20129;-37
2023/03/12 01:57:23;;;;;;;0.35;0.35;;;;;;;17.49;44.83;100718.53;5098309;28;20491;-37
2023/03/12 01:59:52;;;;;;;0.30;0.30;;;;;;;17.50;45.15;100724.88;5117017;28;20487;-36
2023/03/12 02:02:18;;;;;;;;;;;;;;;17.48;45.04;100725.13;5109740;28;20391;-37
2023/03/12 02:04:44;;;;;;;0.40;0.40;;;;;;;17.49;44.95;100726.81;5095620;28;19978;-37
2023/03/12 02:07:15;;;;;;;0.40;0.40;;;;;;;17.48;45.06;100719.63;5109530;28;20493;-36
2023/03/12 02:09:42;;;;;;;0.40;0.40;;;;;;;17.49;45.03;100721.28;5116168;28;20075;-37
2023/03/12 02:12:08;;;;;;;0.40;0.40;;;;;;;17.50;45.13;100706.41;5116780;28;20043;-37
2023/03/12 02:14:35;;;;;;;0.40;0.40;;;;;;;17.50;45.02;100702.84;5097725;28;20051;-36
2023/03/12 02:17:00;;;;;;;0.40;0.40;;;;;;;17.50;44.99;100680.81;5116257;28;20106;-37
2023/03/12 02:19:34;;;;;;;0.40;0.40;;;;;;;17.51;45.04;100687.97;5116247;28;20039;-36
2023/03/12 02:22:01;;;;;;;0.30;0.30;;;;;;;17.49;45.12;100691.00;5116723;28;20050;-36
2023/03/12 02:24:38;;;;;;;0.30;0.30;;;;;;;17.49;45.03;100702.03;5115835;28;20308;-36
2023/03/12 02:27:04;;;;;;;0.30;0.30;;;;;;;17.50;45.11;100700.91;5114992;27;20386;-37
2023/03/12 02:29:31;;;;;;;0.30;0.30;;;;;;;17.50;44.92;100694.59;5097197;28;20046;-36
2023/03/12 02:31:59;;;;;;;0.30;0.30;;;;;;;17.51;44.88;100704.50;5096995;28;20483;-37
2023/03/12 02:34:24;;;;;;;0.30;0.30;;;;;;;17.49;44.99;100702.03;5104694;28;20283;-36
2023/03/12 02:36:50;;;;;;;0.40;0.40;;;;;;;17.50;44.96;100703.66;5104977;27;20528;-37
2023/03/12 02:39:17;;;;;;;0.40;0.40;;;;;;;17.50;44.94;100702.84;5076309;28;20392;-37
2023/03/12 02:41:45;;;;;;;0.30;0.30;;;;;;;17.50;45.10;100697.34;5097393;28;20051;-36
2023/03/12 02:44:16;;;;;;;0.30;0.30;;;;;;;17.50;44.84;100694.59;5115586;27;20249;-36
2023/03/12 02:46:44;;;;;;;0.30;0.30;;;;;;;17.49;44.93;100691.00;5090370;28;20454;-37
2023/03/12 02:49:13;;;;;;;0.30;0.30;;;;;;;17.50;44.99;100689.91;5096745;28;20073;-36
2023/03/12 02:51:40;;;;;;;0.40;0.40;;;;;;;17.50;45.12;100686.31;5115563;28;20111;-37
2023/03/12 02:54:06;;;;;;;0.40;0.40;;;;;;;17.50;44.94;100676.13;5116022;28;20058;-36
2023/03/12 02:56:31;;;;;;;0.30;0.30;;;;;;;17.51;45.06;100668.69;5096944;28;20104;-36
2023/03/12 02:58:57;;;;;;;0.30;0.30;;;;;;;17.51;45.18;100664.00;5097011;28;20108;-37
2023/03/12 03:01:23;;;;;;;0.40;0.40;;;;;;;17.51;44.96;100657.69;5106785;27;20438;-36
2023/03/12 03:03:49;;;;;;;0.40;0.40;;;;;;;17.50;45.04;100651.34;5115084;28;20054;-36
2023/03/12 03:06:15;;;;;;;0.30;0.30;;;;;;;17.50;45.20;100656.88;5115363;28;20261;-36
2023/03/12 03:08:41;;;;;;;0.38;0.38;;;;;;;17.50;44.91;100650.53;5096334;28;20324;-36
2023/03/12 03:11:07;;;;;;;0.30;0.30;;;;;;;17.51;44.99;100660.44;5115032;28;20738;-36
2023/03/12 03:13:33;;;;;;;0.40;0.40;;;;;;;17.51;45.18;100657.69;5097282;28;20051;-36
2023/03/12 03:16:00;;;;;;;0.40;0.40;;;;;;;17.51;45.13;100655.75;5097124;28;20043;-36
2023/03/12 03:18:27;;;;;;;0.30;0.30;;;;;;;17.50;45.07;100651.34;5097372;28;20085;-36
2023/03/12 03:20:56;;;;;;;0.30;0.30;;;;;;;17.50;45.11;100647.78;5113329;28;20089;-36
2023/03/12 03:23:21;;;;;;;0.40;0.40;;;;;;;17.49;44.94;100644.22;5097020;28;20039;-36
2023/03/12 03:25:47;;;;;;;0.40;0.40;;;;;;;17.51;44.96;100652.19;5112421;28;20039;-36
2023/03/12 03:28:13;;;;;;;0.35;0.35;;;;;;;17.50;45.01;100656.88;5108352;27;20092;-36
2023/03/12 03:30:38;;;;;;;0.30;0.30;;;;;;;17.51;44.97;100655.75;5094735;28;20407;-36
2023/03/12 03:33:04;;;;;;;0.30;0.30;;;;;;;17.51;44.96;100655.75;5094793;28;20101;-37
2023/03/12 03:35:30;;;;;;;0.40;0.40;;;;;;;17.52;45.01;100653.81;5089744;28;20433;-36
2023/03/12 03:37:55;;;;;;;0.30;0.30;;;;;;;17.50;44.98;100650.53;5115065;28;20290;-36
2023/03/12 03:40:21;;;;;;;0.40;0.40;;;;;;;17.51;44.96;100650.25;5115064;27;20119;-36
2023/03/12 03:42:47;;;;;;;0.30;0.30;;;;;;;17.52;45.06;100651.06;5115060;28;20342;-36
2023/03/12 03:45:12;;;;;;;0.40;0.40;;;;;;;17.50;45.08;100647.78;5114245;28;20043;-36
2023/03/12 03:47:38;;;;;;;0.30;0.30;;;;;;;17.50;44.92;100654.13;5115502;28;20483;-36
2023/03/12 03:50:05;;;;;;;0.30;0.30;;;;;;;17.51;44.98;100653.00;5114925;28;20051;-36
2023/03/12 03:52:31;;;;;;;0.32;0.32;;;;;;;17.52;44.87;100651.91;5114807;28;20062;-36
2023/03/12 03:54:58;;;;;;;0.40;0.40;;;;;;;17.51;45.00;100653.00;5114541;28;20047;-36
2023/03/12 03:57:24;;;;;;;0.20;0.20;;;;;;;17.52;45.15;100657.41;5114619;28;20376;-37
2023/03/12 03:59:50;;;;;;;0.30;0.30;;;;;;;17.51;44.96;100649.44;5096002;28;20515;-36
2023/03/12 04:02:17;;;;;;;0.30;0.30;;;;;;;17.52;45.10;100651.91;5120868;27;20067;-36
2023/03/12 04:04:43;;;;;;;0.40;0.40;;;;;;;17.52;45.10;100648.31;5134695;27;20046;-36
2023/03/12 04:07:09;;;;;;;0.40;0.40;;;;;;;17.52;45.08;100640.06;5108591;27;20484;-36
2023/03/12 04:09:35;;;;;;;0.30;0.30;;;;;;;17.50;44.81;100640.34;5075157;28;20051;-36
2023/03/12 04:12:00;;;;;;;0.40;0.40;;;;;;;17.51;45.20;100642.00;5093463;28;20079;-36
2023/03/12 04:14:26;;;;;;;0.30;0.30;;;;;;;17.52;44.88;100640.88;5093641;28;20057;-37
2023/03/12 04:16:52;;;;;;;0.30;0.30;;;;;;;17.53;44.81;100638.97;5093457;28;20073;-36
2023/03/12 04:19:18;;;;;;;0.30;0.30;;;;;;;17.51;45.21;100635.66;5075509;28;20520;-36
2023/03/12 04:21:44;;;;;;;0.30;0.30;;;;;;;17.53;45.08;100645.31;5109593;28;20614;-36
2023/03/12 04:24:14;;;;;;;0.40;0.40;;;;;;;17.52;44.89;100634.56;5078257;28;20050;-36
2023/03/12 04:26:39;;;;;;;0.30;0.30;;;;;;;17.51;44.98;100639.25;5095756;28;20282;-37
2023/03/12 04:29:05;;;;;;;0.30;0.30;;;;;;;17.52;44.81;100640.88;5114201;28;20111;-37
2023/03/12 04:31:31;;;;;;;0.30;0.30;;;;;;;17.51;44.94;100639.25;5095204;28;20571;-36
2023/03/12 04:33:57;;;;;;;0.30;0.30;;;;;;;17.51;44.85;100617.22;5114009;28;20043;-36
2023/03/12 04:36:23;;;;;;;0.30;0.30;;;;;;;17.51;44.99;100614.47;5113751;28;20418;-36
2023/03/12 04:38:48;;;;;;;0.40;0.40;;;;;;;17.51;44.84;100619.97;5095900;28;20078;-36
2023/03/12 04:41:15;;;;;;;0.30;0.30;;;;;;;17.51;45.06;100619.97;5114448;28;20043;-36
2023/03/12 04:43:41;;;;;;;0.30;0.30;;;;;;;17.52;44.91;100618.84;5095636;28;20044;-36
2023/03/12 04:46:07;;;;;;;0.30;0.30;;;;;;;17.51;44.78;100628.22;5096970;28;20051;-36
2023/03/12 04:48:33;;;;;;;0.30;0.30;;;;;;;17.52;45.18;100627.13;5114489;28;20703;-36
2023/03/12 04:50:59;;;;;;;0.30;0.30;;;;;;;17.52;44.88;100615.28;5115678;27;20575;-36
2023/03/12 04:53:24;;;;;;;0.30;0.30;;;;;;;17.52;44.87;100613.34;5117588;28;20059;-36
2023/03/12 04:55:50;;;;;;;0.30;0.30;;;;;;;17.53;44.93;100611.44;5117715;28;20053;-36
2023/03/12 04:58:17;;;;;;;0.30;0.30;;;;;;;17.51;44.74;100595.19;5099364;28;20046;-36
2023/03/12 05:00:43;;;;;;;0.30;0.30;;;;;;;17.52;44.99;100602.34;5109325;27;20086;-36
2023/03/12 05:03:09;;;;;;;0.30;0.30;;;;;;;17.52;44.87;100596.81;5098533;28;20042;-36
2023/03/12 05:05:35;;;;;;;0.30;0.30;;;;;;;17.50;44.67;100588.03;5117136;28;20047;-37
2023/03/12 05:08:01;;;;;;;0.30;0.30;;;;;;;17.52;44.81;100582.25;5103194;28;20310;-36
2023/03/12 05:10:27;;;;;;;0.30;0.30;;;;;;;17.51;44.90;100586.94;5117775;28;20043;-36
2023/03/12 05:12:53;;;;;;;0.40;0.40;;;;;;;17.52;45.19;100580.31;5098833;28;20384;-37
2023/03/12 05:15:18;;;;;;;0.30;0.30;;;;;;;17.51;45.26;100567.66;5117459;28;20130;-36
2023/03/12 05:17:44;;;;;;;0.30;0.30;;;;;;;17.52;44.76;100557.47;5117341;28;20057;-36
2023/03/12 05:20:11;;;;;;;0.30;0.30;;;;;;;17.52;44.62;100549.19;5117171;28;20427;-37
2023/03/12 05:22:37;;;;;;;0.30;0.30;;;;;;;17.52;44.78;100539.00;5098530;28;20078;-36
2023/03/12 05:25:03;;;;;;;0.40;0.40;;;;;;;17.52;44.91;100543.69;5098113;28;20100;-36
2023/03/12 05:27:28;;;;;;;0.40;0.40;;;;;;;17.52;45.02;100549.19;5116660;28;20047;-36
2023/03/12 05:29:57;;;;;;;0.30;0.30;;;;;;;17.52;44.86;100555.53;5116978;28;20432;-36
2023/03/12 05:32:22;;;;;;;0.30;0.30;;;;;;;17.52;44.91;100560.22;5116597;28;20148;-36
2023/03/12 05:34:48;;;;;;;0.30;0.30;;;;;;;17.52;44.81;100552.78;5116770;28;20247;-37
2023/03/12 05:37:14;;;;;;;0.30;0.30;;;;;;;17.53;44.81;100550.88;5116223;28;20532;-36
2023/03/12 05:39:45;;;;;;;0.30;0.30;;;;;;;17.51;44.87;100556.63;5109936;28;20059;-36
2023/03/12 05:42:12;;;;;;;0.30;0.30;;;;;;;17.53;44.93;100550.88;5117156;28;20641;-37
2023/03/12 05:44:38;;;;;;;0.30;0.30;;;;;;;17.52;44.75;100530.75;5116178;28;20047;-36
2023/03/12 05:47:04;;;;;;;0.30;0.30;;;;;;;17.53;44.96;100531.59;5116023;28;20054;-37
2023/03/12 05:49:30;;;;;;;0.30;0.30;;;;;;;17.53;44.91;100537.09;5115812;28;20043;-36
2023/03/12 05:51:56;;;;;;;0.30;0.30;;;;;;;17.52;44.92;100522.50;5098204;28;20047;-36
2023/03/12 05:54:22;;;;;;;0.30;0.30;;;;;;;17.53;44.76;100512.31;5097902;28;20058;-36
2023/03/12 05:56:48;;;;;;;0.30;0.30;;;;;;;17.52;44.86;100519.75;5097763;28;20071;-36
2023/03/12 05:59:13;;;;;;;0.38;0.38;;;;;;;17.54;44.73;100511.22;5097712;28;20059;-36
2023/03/12 06:01:40;;;;;;;0.30;0.30;;;;;;;17.53;44.80;100499.38;5116455;27;20411;-37
2023/03/12 06:04:06;;;;;;;0.40;0.40;;;;;;;17.53;44.90;100510.41;5116230;28;20079;-36
2023/03/12 06:06:33;;;;;;;0.40;0.40;;;;;;;17.53;44.92;100498.56;5097541;28;20069;-36
2023/03/12 06:08:59;;;;;;;0.30;0.30;;;;;;;17.53;44.74;100493.88;5116072;28;20043;-36
2023/03/12 06:11:24;;;;;;;0.30;0.30;;;;;;;17.53;44.95;100495.81;5116654;28;20436;-37
2023/03/12 06:13:50;;;;;;;0.30;0.30;;;;;;;17.54;44.81;100500.22;5098536;28;20069;-37
2023/03/12 06:16:22;;;;;;;0.30;0.30;;;;;;;17.53;44.75;100498.56;5116280;28;20047;-36
2023/03/12 06:18:48;;;;;;;0.30;0.30;;;;;;;17.53;44.70;100495.81;5116480;28;20471;-36
2023/03/12 06:21:18;;;;;;;0.30;0.30;;;;;;;17.54;44.86;100505.72;5116228;28;20051;-37
2023/03/12 06:23:44;;;;;;;0.30;0.30;;;;;;;17.53;44.69;100498.56;5097915;28;20552;-36
2023/03/12 06:26:11;;;;;;;0.30;0.30;;;;;;;17.52;44.79;100497.72;5107091;28;20055;-36
2023/03/12 06:28:37;;;;;;;0.30;0.30;;;;;;;17.52;44.69;100497.72;5107270;28;20538;-36
2023/03/12 06:31:03;;;;;;;0.30;0.30;;;;;;;17.53;44.66;100504.88;5116403;28;20051;-36
2023/03/12 06:33:29;;;;;;;0.30;0.30;;;;;;;17.53;44.76;100506.81;5116584;28;20138;-36
2023/03/12 06:35:57;;;;;;;0.30;0.30;;;;;;;17.52;44.87;100503.22;5116203;28;20088;-37
2023/03/12 06:38:23;;;;;;;0.30;0.30;;;;;;;17.53;44.95;100504.88;5097812;28;20150;-36
2023/03/12 06:40:55;;;;;;;0.30;0.30;;;;;;;17.54;44.86;100505.72;5103598;28;20349;-36
2023/03/12 06:43:20;;;;;;;0.40;0.40;;;;;;;17.54;44.62;100511.22;5114668;28;20490;-37
2023/03/12 06:45:46;;;;;;;0.30;0.30;;;;;;;17.53;44.69;100512.31;5114549;28;20120;-37
2023/03/12 06:48:12;;;;;;;0.30;0.30;;;;;;;17.53;44.77;100510.41;5095494;28;20051;-36
2023/03/12 06:50:37;;;;;;;0.30;0.30;;;;;;;17.52;44.88;100514.22;5112049;28;20047;-36
2023/03/12 06:53:03;;;;;;;0.30;0.30;;;;;;;17.52;44.62;100505.97;5116127;28;20134;-36
2023/03/12 06:55:29;;;;;;;0.30;0.30;;;;;;;17.52;44.79;100505.97;5116530;28;20498;-37
2023/03/12 06:57:54;;;;;;;0.30;0.30;;;;;;;17.53;44.78;100520.59;5096051;28;20243;-37
2023/03/12 07:00:20;;;;;;;0.30;0.30;;;;;;;17.53;44.97;100521.41;5095168;28;20058;-36
2023/03/12 07:02:46;;;;;;;0.30;0.30;;;;;;;17.54;44.88;100513.97;5095026;28;20453;-36
2023/03/12 07:05:12;;;;;;;0.30;0.30;;;;;;;17.52;44.79;100511.47;5077010;28;20058;-36
2023/03/12 07:07:37;;;;;;;0.35;0.35;;;;;;;17.53;44.84;100507.66;5111697;28;20380;-36
2023/03/12 07:10:05;;;;;;;0.30;0.30;;;;;;;17.53;44.72;100512.31;5115575;28;20457;-37
2023/03/12 07:12:31;;;;;;;0.30;0.30;;;;;;;17.53;44.89;100504.88;5115361;28;20100;-36
2023/03/12 07:14:57;;;;;;;0.38;0.38;;;;;;;17.53;44.74;100504.06;5096968;28;20490;-36
2023/03/12 07:17:24;;;;;;;0.30;0.30;;;;;;;17.52;44.80;100496.88;5115236;28;20054;-36
2023/03/12 07:19:50;;;;;;;0.30;0.30;;;;;;;17.54;44.78;100497.44;5097411;28;20264;-36
2023/03/12 07:22:16;;;;;;;0.30;0.30;;;;;;;17.53;44.65;100490.31;5097153;28;20208;-37
2023/03/12 07:24:42;;;;;;;0.30;0.30;;;;;;;17.54;44.72;100490.00;5115319;28;20055;-37
2023/03/12 07:27:08;;;;;;;0.40;0.40;;;;;;;17.54;44.69;100489.19;5114848;28;20144;-37
2023/03/12 07:29:33;;;;;;;0.30;0.30;;;;;;;17.54;44.72;100494.69;5115047;28;20047;-36
2023/03/12 07:31:59;;;;;;;0.40;0.40;;;;;;;17.54;44.93;100491.94;5114831;28;20417;-36
2023/03/12 07:34:25;;;;;;;0.30;0.30;;;;;;;17.53;44.73;100490.31;5114854;28;20524;-37
2023/03/12 07:36:51;;;;;;;0.30;0.30;;;;;;;17.53;44.88;100493.88;5096459;28;20483;-37
2023/03/12 07:39:18;;;;;;;0.40;0.40;;;;;;;17.54;44.78;100491.94;5114480;28;20071;-36
2023/03/12 07:41:43;;;;;;;0.30;0.30;;;;;;;17.53;44.79;100487.56;5096289;28;20428;-36
2023/03/12 07:44:09;;;;;;;0.30;0.30;;;;;;;17.53;44.71;100482.03;5114412;28;20062;-37
2023/03/12 07:46:35;;;;;;;0.40;0.40;;;;;;;17.54;44.74;100494.69;5106507;28;20059;-36
2023/03/12 07:49:01;;;;;;;0.40;0.40;;;;;;;17.54;44.76;100490.00;5094286;28;20620;-37
2023/03/12 07:51:27;;;;;;;0.30;0.30;;;;;;;17.54;44.86;100494.69;5104184;28;20049;-36
2023/03/12 07:53:53;;;;;;;0.30;0.30;;;;;;;17.54;44.89;100481.75;5114271;28;20039;-36
2023/03/12 07:56:18;;;;;;;0.30;0.30;;;;;;;17.54;44.62;100478.19;5108738;28;20491;-36
2023/03/12 07:58:44;;;;;;;0.40;0.40;;;;;;;17.55;44.79;100485.31;5109572;27;20257;-36
2023/03/12 08:01:10;;;;;;;0.40;0.40;;;;;;;17.54;44.73;100486.44;5135532;27;20047;-36
2023/03/12 08:03:37;;;;;;;0.30;0.30;;;;;;;17.54;44.93;100489.19;5134470;27;20118;-36
2023/03/12 08:06:04;;;;;;;0.35;0.35;;;;;;;17.54;44.79;100497.44;5127455;27;20047;-36
2023/03/12 08:08:31;;;;;;;0.40;0.40;;;;;;;17.53;44.64;100496.63;5075759;28;20130;-36
2023/03/12 08:10:57;;;;;;;0.32;0.32;;;;;;;17.55;44.71;100499.09;5059097;28;20055;-36
2023/03/12 08:13:23;;;;;;;0.30;0.30;;;;;;;17.54;44.72;100489.19;5093798;28;20044;-36
2023/03/12 08:15:50;;;;;;;0.40;0.40;;;;;;;17.54;44.54;100486.44;5075888;28;20128;-36
2023/03/12 08:18:17;;;;;;;0.30;0.30;;;;;;;17.54;44.83;100487.25;5059314;28;20083;-36
2023/03/12 08:20:43;;;;;;;0.40;0.40;;;;;;;17.54;44.75;100494.69;5094315;28;20483;-36
2023/03/12 08:23:08;;;;;;;0.30;0.30;;;;;;;17.53;44.44;100502.13;5094104;28;20082;-36
2023/03/12 08:25:35;;;;;;;0.30;0.30;;;;;;;17.53;44.61;100493.88;5076057;28;20052;-36
2023/03/12 08:28:02;;;;;;;0.32;0.32;;;;;;;17.55;44.85;100499.09;5107247;28;20537;-36
2023/03/12 08:30:29;;;;;;;0.30;0.30;;;;;;;17.54;45.03;100498.28;5118640;27;20090;-36
2023/03/12 08:32:56;;;;;;;0.30;0.30;;;;;;;17.54;44.64;100492.75;5116217;28;20066;-36
2023/03/12 08:35:22;;;;;;;0.30;0.30;;;;;;;17.54;44.52;100489.19;5099637;28;20131;-36
2023/03/12 08:37:47;;;;;;;0.38;0.38;;;;;;;17.55;44.67;100488.06;5099138;27;20036;-36
2023/03/12 08:40:13;;;;;;;0.40;0.40;;;;;;;17.54;44.69;100483.69;5097614;28;20055;-36
2023/03/12 08:42:40;;;;;;;0.30;0.30;;;;;;;17.54;44.70;100479.00;5097468;28;20445;-36
2023/03/12 08:45:06;;;;;;;0.30;0.30;;;;;;;17.54;44.62;100475.44;5112507;28;20214;-36
2023/03/12 08:47:32;;;;;;;0.40;0.40;;;;;;;17.54;44.71;100467.97;5089111;28;20081;-36
2023/03/12 08:49:58;;;;;;;0.40;0.40;;;;;;;17.54;44.80;100469.91;5118001;28;20117;-37
2023/03/12 08:52:23;;;;;;;0.30;0.30;;;;;;;17.53;44.69;100471.84;5117501;28;20522;-36
2023/03/12 08:54:49;;;;;;;0.30;0.30;;;;;;;17.53;44.84;100469.09;5117428;27;20051;-36
2023/03/12 08:57:15;;;;;;;0.38;0.38;;;;;;;17.54;44.80;100478.19;5117377;28;20050;-36
2023/03/12 08:59:40;;;;;;;0.40;0.40;;;;;;;17.56;44.70;100475.97;5097330;28;20051;-36
2023/03/12 09:02:06;;;;;;;0.30;0.30;;;;;;;17.54;44.79;100469.91;5097409;28;20039;-36
2023/03/12 09:04:32;;;;;;;0.40;0.40;;;;;;;17.55;44.73;100479.81;5096358;28;20500;-36
2023/03/12 09:07:00;;;;;;;0.40;0.40;;;;;;;17.54;44.84;100469.91;5108229;28;20050;-36
2023/03/12 09:09:25;;;;;;;0.40;0.40;;;;;;;17.54;44.65;100476.25;5117533;28;20127;-36
2023/03/12 09:11:51;;;;;;;0.30;0.30;;;;;;;17.55;44.40;100477.06;5117409;28;20047;-36
2023/03/12 09:14:17;;;;;;;0.30;0.30;;;;;;;17.55;44.89;100483.41;5117276;28;20047;-36
2023/03/12 09:17:02;;;;;;;0.40;0.40;;;;;;;17.54;44.64;100480.94;5101941;28;20155;-36
2023/03/12 09:19:28;;;;;;;0.30;0.30;;;;;;;17.55;44.66;100479.81;5117544;28;20043;-36
2023/03/12 09:21:54;;;;;;;0.30;0.30;;;;;;;17.55;44.79;100477.06;5099276;28;20095;-36
2023/03/12 09:24:19;;;;;;;0.30;0.30;;;;;;;17.55;44.70;100485.31;5117154;28;20244;-36
2023/03/12 09:26:45;;;;;;;0.40;0.40;;;;;;;17.54;44.71;100481.75;5117169;28;20478;-36
2023/03/12 09:29:11;;;;;;;0.30;0.30;;;;;;;17.55;44.66;100483.41;5116637;27;20078;-36
2023/03/12 09:31:37;;;;;;;0.30;0.30;;;;;;;17.55;44.77;100491.66;5117164;28;20046;-36
2023/03/12 09:34:03;;;;;;;0.40;0.40;;;;;;;17.55;44.72;100488.06;5117025;28;20051;-36
2023/03/12 09:36:29;;;;;;;0.40;0.40;;;;;;;17.54;44.67;100484.50;5103756;28;20051;-36
2023/03/12 09:38:55;;;;;;;0.38;0.38;;;;;;;17.55;44.76;100485.31;5109617;28;20103;-36
2023/03/12 09:41:24;;;;;;;0.30;0.30;;;;;;;17.54;44.69;100479.00;5117155;28;20043;-36
2023/03/12 09:43:57;;;;;;;0.30;0.30;;;;;;;17.55;44.58;100499.09;5097987;28;20058;-36
2023/03/12 09:46:31;;;;;;;0.30;0.30;;;;;;;17.53;44.88;100491.13;5098146;28;20058;-36
2023/03/12 09:48:57;;;;;;;0.30;0.30;;;;;;;17.54;44.73;100498.28;5116227;28;20053;-36
2023/03/12 09:51:31;;;;;;;0.30;0.30;;;;;;;17.55;44.75;100496.34;5116398;28;20540;-36
2023/03/12 09:53:59;;;;;;;0.30;0.30;;;;;;;17.54;44.62;100492.75;5116332;28;20435;-36
2023/03/12 09:56:25;;;;;;;0.40;0.40;;;;;;;17.55;44.67;100490.84;5101440;28;20466;-36
2023/03/12 09:58:53;;;;;;;0.40;0.40;;;;;;;17.54;44.86;100487.25;5105224;28;20504;-36
2023/03/12 10:01:56;;;;;;;0.30;0.30;;;;;;;17.55;44.69;100483.41;5095652;28;20446;-36
2023/03/12 10:04:31;;;;;;;0.30;0.30;;;;;;;17.55;44.72;100488.06;5094853;28;20408;-36
2023/03/12 10:07:04;;;;;;;0.30;0.30;;;;;;;17.55;44.64;100494.41;5106799;28;20548;-36
2023/03/12 10:10:08;;;;;;;0.30;0.30;;;;;;;17.55;44.70;100493.59;5097501;28;20155;-36
2023/03/12 10:13:12;;;;;;;0.30;0.30;;;;;;;17.54;44.79;100492.75;5103487;28;20039;-36
2023/03/12 10:15:56;;;;;;;0.30;0.30;;;;;;;17.55;44.83;100496.34;5103656;28;20273;-36
2023/03/12 10:18:48;;;;;;;0.30;0.30;;;;;;;17.55;44.46;100504.59;5116210;28;20047;-36
2023/03/12 10:21:21;;;;;;;0.30;0.30;;;;;;;17.55;44.50;100501.84;5084864;28;20055;-36
2023/03/12 10:24:03;;;;;;;0.30;0.30;;;;;;;17.56;44.67;100500.72;5116314;28;20047;-36
2023/03/12 10:26:42;;;;;;;0.30;0.30;;;;;;;17.56;44.70;100506.25;5097466;28;20086;-36
2023/03/12 10:29:12;;;;;;;0.30;0.30;;;;;;;17.55;44.70;100507.34;5116214;28;20062;-36
2023/03/12 10:31:51;;;;;;;0.30;0.30;;;;;;;17.55;44.63;100505.41;5086691;28;20094;-36
2023/03/12 10:34:22;;;;;;;0.30;0.30;;;;;;;17.55;44.89;100510.09;5115468;28;20066;-36
2023/03/12 10:36:48;;;;;;;0.35;0.35;;;;;;;17.54;44.63;100505.72;5098903;28;20096;-37
2023/03/12 10:39:17;;;;;;;0.30;0.30;;;;;;;17.55;44.44;100512.84;5111575;28;20055;-36
2023/03/12 10:41:45;;;;;;;0.30;0.30;;;;;;;17.55;44.58;100515.63;5097931;28;20051;-36
2023/03/12 10:44:17;;;;;;;0.20;0.20;;;;;;;17.55;44.56;100512.84;5097623;28;20050;-36
2023/03/12 10:46:54;;;;;;;0.20;0.20;;;;;;;17.56;44.64;100514.50;5097141;28;20078;-37
2023/03/12 10:51:58;;;;;;;0.38;0.38;;;;;;;17.55;44.59;100521.13;5174609;27;20119;-36
2023/03/12 10:54:33;;;;;;;0.40;0.40;;;;;;;17.56;44.67;100518.06;5153581;27;20704;-36
2023/03/12 10:56:59;;;;;;;0.30;0.30;;;;;;;17.55;44.54;100512.84;5138633;27;20074;-36
2023/03/12 10:59:28;;;;;;;0.30;0.30;;;;;;;17.55;44.59;100524.69;5152998;27;20474;-36
2023/03/12 11:01:54;;;;;;;0.40;0.40;;;;;;;17.55;44.77;100516.44;5134392;27;20301;-37
2023/03/12 11:04:27;;;;;;;0.30;0.30;;;;;;;17.56;44.38;100511.75;5117170;27;20494;-36
2023/03/12 11:07:15;;;;;;;0.30;0.30;;;;;;;17.55;44.78;100507.34;5113906;27;20050;-36
2023/03/12 11:09:40;;;;;;;0.30;0.30;;;;;;;17.56;44.54;100509.00;5135513;27;20848;-36
2023/03/12 11:12:28;;;;;;;0.30;0.30;;;;;;;17.55;44.68;100516.44;5152644;27;20213;-36
2023/03/12 11:14:54;;;;;;;0.40;0.40;;;;;;;17.55;44.58;100512.84;5119987;27;20221;-36
2023/03/12 11:17:25;;;;;;;0.30;0.30;;;;;;;17.55;44.42;100497.16;5153157;27;20079;-36
2023/03/12 11:19:51;;;;;;;0.30;0.30;;;;;;;17.55;44.42;100499.09;5134227;27;20525;-36
2023/03/12 11:22:33;;;;;;;0.30;0.30;;;;;;;17.54;44.55;100505.72;5134057;27;20074;-36
2023/03/12 11:25:04;;;;;;;0.30;0.30;;;;;;;17.55;44.60;100497.16;5134297;27;20043;-36
2023/03/12 11:27:43;;;;;;;0.30;0.30;;;;;;;17.55;44.46;100497.16;5145669;27;20071;-36
2023/03/12 11:30:11;;;;;;;0.30;0.30;;;;;;;17.55;44.56;100494.41;5152591;27;20502;-36